sensor_id;sensor_type;location;lat;lon;timestamp;P1;durP1;ratioP1;P2;durP2;ratioP2
27269;SDS011;14769;56.934;24.176;2022-11-09T00:00:14;27.98;;;13.40;;
27269;SDS011;14769;56.934;24.176;2022-11-09T00:01:17;25.55;;;13.15;;
27269;SDS011;14769;56.934;24.176;2022-11-09T00:02:19;30.95;;;13.75;;
27269;SDS011;14769;56.934;24.176;2022-11-09T00:03:23;28.67;;;13.38;;
27269;SDS011;14769;56.934;24.176;2022-11-09T00:04:25;29.80;;;13.50;;
27269;SDS011;14769;56.934;24.176;2022-11-09T00:05:28;25.38;;;13.85;;
27269;SDS011;14769;56.934;24.176;2022-11-09T00:06:31;30.00;;;12.93;;
27269;SDS011;14769;56.934;24.176;2022-11-09T00:07:34;26.67;;;12.52;;
27269;SDS011;14769;56.934;24.176;2022-11-09T00:08:36;33.45;;;14.07;;
27269;SDS011;14769;56.934;24.176;2022-11-09T00:09:39;30.20;;;13.70;;
27269;SDS011;14769;56.934;24.176;2022-11-09T00:10:41;30.73;;;14.55;;
27269;SDS011;14769;56.934;24.176;2022-11-09T00:11:43;28.20;;;14.45;;
27269;SDS011;14769;56.934;24.176;2022-11-09T00:12:45;26.38;;;14.63;;
27269;SDS011;14769;56.934;24.176;2022-11-09T00:13:47;26.35;;;14.48;;
27269;SDS011;14769;56.934;24.176;2022-11-09T00:14:49;28.85;;;15.18;;
27269;SDS011;14769;56.934;24.176;2022-11-09T00:15:51;26.50;;;14.43;;
27269;SDS011;14769;56.934;24.176;2022-11-09T00:16:53;33.40;;;16.08;;
27269;SDS011;14769;56.934;24.176;2022-11-09T00:17:58;26.17;;;14.95;;
27269;SDS011;14769;56.934;24.176;2022-11-09T00:19:02;34.72;;;15.60;;
27269;SDS011;14769;56.934;24.176;2022-11-09T00:20:04;30.45;;;14.60;;
27269;SDS011;14769;56.934;24.176;2022-11-09T00:21:11;29.92;;;15.50;;
27269;SDS011;14769;56.934;24.176;2022-11-09T00:22:15;28.15;;;15.00;;
27269;SDS011;14769;56.934;24.176;2022-11-09T00:23:17;36.83;;;15.10;;
27269;SDS011;14769;56.934;24.176;2022-11-09T00:24:19;25.52;;;14.88;;
27269;SDS011;14769;56.934;24.176;2022-11-09T00:25:21;28.48;;;14.85;;
27269;SDS011;14769;56.934;24.176;2022-11-09T00:26:24;25.88;;;15.00;;
27269;SDS011;14769;56.934;24.176;2022-11-09T00:27:27;28.90;;;15.45;;
27269;SDS011;14769;56.934;24.176;2022-11-09T00:28:29;24.27;;;14.27;;
27269;SDS011;14769;56.934;24.176;2022-11-09T00:29:31;27.40;;;15.10;;
27269;SDS011;14769;56.934;24.176;2022-11-09T00:30:33;33.47;;;15.20;;
27269;SDS011;14769;56.934;24.176;2022-11-09T00:31:35;25.70;;;15.32;;
27269;SDS011;14769;56.934;24.176;2022-11-09T00:32:37;28.42;;;15.27;;
27269;SDS011;14769;56.934;24.176;2022-11-09T00:33:39;28.38;;;15.60;;
27269;SDS011;14769;56.934;24.176;2022-11-09T00:34:41;26.05;;;14.90;;
27269;SDS011;14769;56.934;24.176;2022-11-09T00:35:44;28.00;;;15.65;;
27269;SDS011;14769;56.934;24.176;2022-11-09T00:36:46;23.27;;;14.90;;
27269;SDS011;14769;56.934;24.176;2022-11-09T00:37:47;25.00;;;15.32;;
27269;SDS011;14769;56.934;24.176;2022-11-09T00:38:50;29.05;;;15.38;;
27269;SDS011;14769;56.934;24.176;2022-11-09T00:39:56;35.30;;;14.63;;
27269;SDS011;14769;56.934;24.176;2022-11-09T00:41:01;31.63;;;16.15;;
27269;SDS011;14769;56.934;24.176;2022-11-09T00:42:04;32.20;;;15.02;;
27269;SDS011;14769;56.934;24.176;2022-11-09T00:43:07;25.38;;;15.35;;
27269;SDS011;14769;56.934;24.176;2022-11-09T00:44:11;25.02;;;15.40;;
27269;SDS011;14769;56.934;24.176;2022-11-09T00:45:13;29.10;;;15.63;;
27269;SDS011;14769;56.934;24.176;2022-11-09T00:46:15;28.52;;;15.07;;
27269;SDS011;14769;56.934;24.176;2022-11-09T00:47:17;27.58;;;15.05;;
27269;SDS011;14769;56.934;24.176;2022-11-09T00:48:19;30.42;;;16.13;;
27269;SDS011;14769;56.934;24.176;2022-11-09T00:49:21;30.83;;;14.85;;
27269;SDS011;14769;56.934;24.176;2022-11-09T00:50:23;32.80;;;14.65;;
27269;SDS011;14769;56.934;24.176;2022-11-09T00:51:25;29.48;;;15.30;;
27269;SDS011;14769;56.934;24.176;2022-11-09T00:52:27;33.20;;;16.00;;
27269;SDS011;14769;56.934;24.176;2022-11-09T00:53:29;29.25;;;15.00;;
27269;SDS011;14769;56.934;24.176;2022-11-09T00:54:32;27.00;;;14.93;;
27269;SDS011;14769;56.934;24.176;2022-11-09T00:55:34;27.90;;;14.32;;
27269;SDS011;14769;56.934;24.176;2022-11-09T00:56:36;26.13;;;14.07;;
27269;SDS011;14769;56.934;24.176;2022-11-09T00:57:38;23.75;;;14.38;;
27269;SDS011;14769;56.934;24.176;2022-11-09T00:58:40;30.15;;;15.65;;
27269;SDS011;14769;56.934;24.176;2022-11-09T00:59:42;24.67;;;15.23;;
27269;SDS011;14769;56.934;24.176;2022-11-09T01:00:44;25.15;;;15.15;;
27269;SDS011;14769;56.934;24.176;2022-11-09T01:01:46;21.85;;;14.65;;
27269;SDS011;14769;56.934;24.176;2022-11-09T01:02:48;27.92;;;15.05;;
27269;SDS011;14769;56.934;24.176;2022-11-09T01:03:51;28.45;;;14.55;;
27269;SDS011;14769;56.934;24.176;2022-11-09T01:04:53;27.10;;;15.13;;
27269;SDS011;14769;56.934;24.176;2022-11-09T01:05:57;28.95;;;15.52;;
27269;SDS011;14769;56.934;24.176;2022-11-09T01:07:00;28.48;;;15.57;;
27269;SDS011;14769;56.934;24.176;2022-11-09T01:08:02;28.52;;;15.30;;
27269;SDS011;14769;56.934;24.176;2022-11-09T01:09:04;25.83;;;15.68;;
27269;SDS011;14769;56.934;24.176;2022-11-09T01:10:06;26.02;;;15.73;;
27269;SDS011;14769;56.934;24.176;2022-11-09T01:11:09;28.55;;;15.32;;
27269;SDS011;14769;56.934;24.176;2022-11-09T01:12:11;26.75;;;14.82;;
27269;SDS011;14769;56.934;24.176;2022-11-09T01:13:15;26.90;;;15.57;;
27269;SDS011;14769;56.934;24.176;2022-11-09T01:14:18;28.90;;;15.73;;
27269;SDS011;14769;56.934;24.176;2022-11-09T01:15:20;25.00;;;14.93;;
27269;SDS011;14769;56.934;24.176;2022-11-09T01:16:23;27.38;;;15.25;;
27269;SDS011;14769;56.934;24.176;2022-11-09T01:17:25;25.45;;;15.57;;
27269;SDS011;14769;56.934;24.176;2022-11-09T01:18:27;27.15;;;15.05;;
27269;SDS011;14769;56.934;24.176;2022-11-09T01:19:29;27.88;;;15.02;;
27269;SDS011;14769;56.934;24.176;2022-11-09T01:20:31;25.45;;;15.15;;
27269;SDS011;14769;56.934;24.176;2022-11-09T01:21:33;30.17;;;15.32;;
27269;SDS011;14769;56.934;24.176;2022-11-09T01:22:35;25.42;;;14.15;;
27269;SDS011;14769;56.934;24.176;2022-11-09T01:23:37;28.30;;;15.13;;
27269;SDS011;14769;56.934;24.176;2022-11-09T01:24:40;28.30;;;15.05;;
27269;SDS011;14769;56.934;24.176;2022-11-09T01:25:43;26.23;;;14.98;;
27269;SDS011;14769;56.934;24.176;2022-11-09T01:26:45;26.88;;;14.77;;
27269;SDS011;14769;56.934;24.176;2022-11-09T01:27:47;28.00;;;15.10;;
27269;SDS011;14769;56.934;24.176;2022-11-09T01:28:48;31.20;;;14.32;;
27269;SDS011;14769;56.934;24.176;2022-11-09T01:29:50;27.38;;;15.10;;
27269;SDS011;14769;56.934;24.176;2022-11-09T01:30:52;29.85;;;15.07;;
27269;SDS011;14769;56.934;24.176;2022-11-09T01:31:55;29.67;;;14.65;;
27269;SDS011;14769;56.934;24.176;2022-11-09T01:32:56;29.58;;;13.98;;
27269;SDS011;14769;56.934;24.176;2022-11-09T01:33:59;29.45;;;15.00;;
27269;SDS011;14769;56.934;24.176;2022-11-09T01:35:01;27.85;;;14.45;;
27269;SDS011;14769;56.934;24.176;2022-11-09T01:36:03;30.73;;;14.40;;
27269;SDS011;14769;56.934;24.176;2022-11-09T01:37:07;26.15;;;14.05;;
27269;SDS011;14769;56.934;24.176;2022-11-09T01:38:09;28.70;;;15.23;;
27269;SDS011;14769;56.934;24.176;2022-11-09T01:39:11;31.75;;;15.63;;
27269;SDS011;14769;56.934;24.176;2022-11-09T01:40:13;26.17;;;15.55;;
27269;SDS011;14769;56.934;24.176;2022-11-09T01:41:26;27.65;;;15.30;;
27269;SDS011;14769;56.934;24.176;2022-11-09T01:42:29;26.75;;;15.50;;
27269;SDS011;14769;56.934;24.176;2022-11-09T01:43:35;26.70;;;14.57;;
27269;SDS011;14769;56.934;24.176;2022-11-09T01:44:37;25.33;;;16.23;;
27269;SDS011;14769;56.934;24.176;2022-11-09T01:45:39;31.13;;;15.27;;
27269;SDS011;14769;56.934;24.176;2022-11-09T01:48:07;28.40;;;15.50;;
27269;SDS011;14769;56.934;24.176;2022-11-09T01:49:17;30.08;;;15.40;;
27269;SDS011;14769;56.934;24.176;2022-11-09T01:50:28;28.25;;;15.35;;
27269;SDS011;14769;56.934;24.176;2022-11-09T01:51:40;27.77;;;15.68;;
27269;SDS011;14769;56.934;24.176;2022-11-09T01:52:46;32.65;;;16.05;;
27269;SDS011;14769;56.934;24.176;2022-11-09T01:53:50;28.65;;;15.43;;
27269;SDS011;14769;56.934;24.176;2022-11-09T01:55:06;27.65;;;15.98;;
27269;SDS011;14769;56.934;24.176;2022-11-09T01:56:12;28.17;;;15.57;;
27269;SDS011;14769;56.934;24.176;2022-11-09T01:57:21;30.33;;;15.68;;
27269;SDS011;14769;56.934;24.176;2022-11-09T01:58:38;29.17;;;15.90;;
27269;SDS011;14769;56.934;24.176;2022-11-09T01:59:48;29.42;;;16.00;;
27269;SDS011;14769;56.934;24.176;2022-11-09T02:00:54;24.65;;;15.43;;
27269;SDS011;14769;56.934;24.176;2022-11-09T02:01:58;29.50;;;16.73;;
27269;SDS011;14769;56.934;24.176;2022-11-09T02:03:02;28.83;;;16.17;;
27269;SDS011;14769;56.934;24.176;2022-11-09T02:04:11;29.27;;;16.35;;
27269;SDS011;14769;56.934;24.176;2022-11-09T02:05:16;31.35;;;17.05;;
27269;SDS011;14769;56.934;24.176;2022-11-09T02:06:22;37.92;;;16.75;;
27269;SDS011;14769;56.934;24.176;2022-11-09T02:07:27;27.63;;;16.85;;
27269;SDS011;14769;56.934;24.176;2022-11-09T02:08:29;29.67;;;16.40;;
27269;SDS011;14769;56.934;24.176;2022-11-09T02:09:38;31.08;;;16.80;;
27269;SDS011;14769;56.934;24.176;2022-11-09T02:12:11;30.33;;;16.70;;
27269;SDS011;14769;56.934;24.176;2022-11-09T02:13:15;30.65;;;17.75;;
27269;SDS011;14769;56.934;24.176;2022-11-09T02:14:20;31.02;;;16.73;;
27269;SDS011;14769;56.934;24.176;2022-11-09T02:15:23;30.17;;;16.15;;
27269;SDS011;14769;56.934;24.176;2022-11-09T02:16:27;33.45;;;16.90;;
27269;SDS011;14769;56.934;24.176;2022-11-09T02:17:30;27.65;;;16.92;;
27269;SDS011;14769;56.934;24.176;2022-11-09T02:18:32;31.67;;;18.98;;
27269;SDS011;14769;56.934;24.176;2022-11-09T02:19:35;27.08;;;16.27;;
27269;SDS011;14769;56.934;24.176;2022-11-09T02:20:50;32.88;;;17.65;;
27269;SDS011;14769;56.934;24.176;2022-11-09T02:21:53;33.67;;;18.55;;
27269;SDS011;14769;56.934;24.176;2022-11-09T02:22:55;26.85;;;16.50;;
27269;SDS011;14769;56.934;24.176;2022-11-09T02:23:58;28.40;;;17.13;;
27269;SDS011;14769;56.934;24.176;2022-11-09T02:25:01;25.13;;;16.38;;
27269;SDS011;14769;56.934;24.176;2022-11-09T02:26:06;29.33;;;16.85;;
27269;SDS011;14769;56.934;24.176;2022-11-09T02:27:12;35.17;;;17.88;;
27269;SDS011;14769;56.934;24.176;2022-11-09T02:28:14;28.27;;;16.48;;
27269;SDS011;14769;56.934;24.176;2022-11-09T02:29:25;27.73;;;16.73;;
27269;SDS011;14769;56.934;24.176;2022-11-09T02:30:42;28.25;;;17.17;;
27269;SDS011;14769;56.934;24.176;2022-11-09T02:33:03;28.95;;;17.17;;
27269;SDS011;14769;56.934;24.176;2022-11-09T02:34:06;30.92;;;17.63;;
27269;SDS011;14769;56.934;24.176;2022-11-09T02:35:11;30.40;;;16.80;;
27269;SDS011;14769;56.934;24.176;2022-11-09T02:36:13;30.33;;;17.23;;
27269;SDS011;14769;56.934;24.176;2022-11-09T02:38:31;29.33;;;18.10;;
27269;SDS011;14769;56.934;24.176;2022-11-09T02:39:34;36.08;;;18.25;;
27269;SDS011;14769;56.934;24.176;2022-11-09T02:40:36;30.42;;;17.55;;
27269;SDS011;14769;56.934;24.176;2022-11-09T02:41:42;33.35;;;17.60;;
27269;SDS011;14769;56.934;24.176;2022-11-09T02:42:48;32.85;;;18.10;;
27269;SDS011;14769;56.934;24.176;2022-11-09T02:43:50;29.42;;;16.73;;
27269;SDS011;14769;56.934;24.176;2022-11-09T02:44:54;28.35;;;17.10;;
27269;SDS011;14769;56.934;24.176;2022-11-09T02:45:58;35.85;;;18.20;;
27269;SDS011;14769;56.934;24.176;2022-11-09T02:47:00;35.33;;;18.17;;
27269;SDS011;14769;56.934;24.176;2022-11-09T02:48:02;32.50;;;18.00;;
27269;SDS011;14769;56.934;24.176;2022-11-09T02:49:04;30.88;;;17.83;;
27269;SDS011;14769;56.934;24.176;2022-11-09T02:50:07;30.80;;;17.75;;
27269;SDS011;14769;56.934;24.176;2022-11-09T02:51:12;33.83;;;19.38;;
27269;SDS011;14769;56.934;24.176;2022-11-09T02:52:14;33.80;;;18.38;;
27269;SDS011;14769;56.934;24.176;2022-11-09T02:53:17;35.28;;;18.27;;
27269;SDS011;14769;56.934;24.176;2022-11-09T02:54:19;32.97;;;18.42;;
27269;SDS011;14769;56.934;24.176;2022-11-09T02:55:21;32.28;;;18.98;;
27269;SDS011;14769;56.934;24.176;2022-11-09T02:56:23;33.08;;;18.98;;
27269;SDS011;14769;56.934;24.176;2022-11-09T02:57:24;29.27;;;18.73;;
27269;SDS011;14769;56.934;24.176;2022-11-09T02:58:26;35.22;;;18.75;;
27269;SDS011;14769;56.934;24.176;2022-11-09T02:59:28;33.95;;;18.20;;
27269;SDS011;14769;56.934;24.176;2022-11-09T03:00:30;33.28;;;18.77;;
27269;SDS011;14769;56.934;24.176;2022-11-09T03:01:32;32.33;;;19.10;;
27269;SDS011;14769;56.934;24.176;2022-11-09T03:02:34;32.22;;;18.45;;
27269;SDS011;14769;56.934;24.176;2022-11-09T03:03:36;29.77;;;17.85;;
27269;SDS011;14769;56.934;24.176;2022-11-09T03:04:38;29.33;;;17.90;;
27269;SDS011;14769;56.934;24.176;2022-11-09T03:05:40;30.77;;;18.10;;
27269;SDS011;14769;56.934;24.176;2022-11-09T03:06:44;33.30;;;19.30;;
27269;SDS011;14769;56.934;24.176;2022-11-09T03:07:46;32.97;;;19.20;;
27269;SDS011;14769;56.934;24.176;2022-11-09T03:08:47;31.30;;;18.48;;
27269;SDS011;14769;56.934;24.176;2022-11-09T03:09:49;36.05;;;18.65;;
27269;SDS011;14769;56.934;24.176;2022-11-09T03:10:51;38.40;;;18.58;;
27269;SDS011;14769;56.934;24.176;2022-11-09T03:11:53;32.53;;;18.50;;
27269;SDS011;14769;56.934;24.176;2022-11-09T03:12:55;38.72;;;19.23;;
27269;SDS011;14769;56.934;24.176;2022-11-09T03:13:57;33.30;;;19.55;;
27269;SDS011;14769;56.934;24.176;2022-11-09T03:14:59;30.23;;;18.65;;
27269;SDS011;14769;56.934;24.176;2022-11-09T03:16:05;34.63;;;19.45;;
27269;SDS011;14769;56.934;24.176;2022-11-09T03:17:08;30.75;;;18.77;;
27269;SDS011;14769;56.934;24.176;2022-11-09T03:18:10;30.30;;;18.58;;
27269;SDS011;14769;56.934;24.176;2022-11-09T03:19:11;29.25;;;17.52;;
27269;SDS011;14769;56.934;24.176;2022-11-09T03:20:13;32.58;;;18.40;;
27269;SDS011;14769;56.934;24.176;2022-11-09T03:21:15;32.30;;;18.42;;
27269;SDS011;14769;56.934;24.176;2022-11-09T03:22:17;32.78;;;18.15;;
27269;SDS011;14769;56.934;24.176;2022-11-09T03:23:20;28.02;;;18.65;;
27269;SDS011;14769;56.934;24.176;2022-11-09T03:24:22;33.75;;;18.25;;
27269;SDS011;14769;56.934;24.176;2022-11-09T03:25:24;31.92;;;19.50;;
27269;SDS011;14769;56.934;24.176;2022-11-09T03:26:27;32.17;;;18.85;;
27269;SDS011;14769;56.934;24.176;2022-11-09T03:27:29;30.52;;;18.77;;
27269;SDS011;14769;56.934;24.176;2022-11-09T03:28:31;29.67;;;18.17;;
27269;SDS011;14769;56.934;24.176;2022-11-09T03:29:33;30.45;;;19.13;;
27269;SDS011;14769;56.934;24.176;2022-11-09T03:30:35;31.40;;;18.33;;
27269;SDS011;14769;56.934;24.176;2022-11-09T03:31:37;33.70;;;18.10;;
27269;SDS011;14769;56.934;24.176;2022-11-09T03:32:39;31.60;;;18.17;;
27269;SDS011;14769;56.934;24.176;2022-11-09T03:33:42;34.28;;;18.95;;
27269;SDS011;14769;56.934;24.176;2022-11-09T03:34:44;35.60;;;18.60;;
27269;SDS011;14769;56.934;24.176;2022-11-09T03:35:46;35.95;;;19.08;;
27269;SDS011;14769;56.934;24.176;2022-11-09T03:36:48;33.60;;;19.10;;
27269;SDS011;14769;56.934;24.176;2022-11-09T03:37:49;31.55;;;19.08;;
27269;SDS011;14769;56.934;24.176;2022-11-09T03:38:52;33.83;;;18.48;;
27269;SDS011;14769;56.934;24.176;2022-11-09T03:39:53;30.05;;;17.73;;
27269;SDS011;14769;56.934;24.176;2022-11-09T03:40:57;35.17;;;18.98;;
27269;SDS011;14769;56.934;24.176;2022-11-09T03:41:59;34.13;;;19.88;;
27269;SDS011;14769;56.934;24.176;2022-11-09T03:43:01;33.72;;;19.83;;
27269;SDS011;14769;56.934;24.176;2022-11-09T03:44:03;30.38;;;17.60;;
27269;SDS011;14769;56.934;24.176;2022-11-09T03:45:05;31.77;;;18.88;;
27269;SDS011;14769;56.934;24.176;2022-11-09T03:46:08;33.67;;;18.85;;
27269;SDS011;14769;56.934;24.176;2022-11-09T03:47:10;29.15;;;18.80;;
27269;SDS011;14769;56.934;24.176;2022-11-09T03:48:11;39.05;;;19.05;;
27269;SDS011;14769;56.934;24.176;2022-11-09T03:49:13;32.17;;;18.58;;
27269;SDS011;14769;56.934;24.176;2022-11-09T03:50:16;30.00;;;18.20;;
27269;SDS011;14769;56.934;24.176;2022-11-09T03:51:18;30.38;;;18.40;;
27269;SDS011;14769;56.934;24.176;2022-11-09T03:52:20;32.35;;;19.35;;
27269;SDS011;14769;56.934;24.176;2022-11-09T03:53:22;29.33;;;18.60;;
27269;SDS011;14769;56.934;24.176;2022-11-09T03:54:23;32.47;;;18.85;;
27269;SDS011;14769;56.934;24.176;2022-11-09T03:55:26;32.40;;;18.15;;
27269;SDS011;14769;56.934;24.176;2022-11-09T03:56:28;32.88;;;19.40;;
27269;SDS011;14769;56.934;24.176;2022-11-09T03:57:30;30.08;;;18.83;;
27269;SDS011;14769;56.934;24.176;2022-11-09T03:58:32;30.83;;;18.98;;
27269;SDS011;14769;56.934;24.176;2022-11-09T03:59:34;30.35;;;18.58;;
27269;SDS011;14769;56.934;24.176;2022-11-09T04:00:36;30.80;;;19.08;;
27269;SDS011;14769;56.934;24.176;2022-11-09T04:01:38;32.28;;;19.50;;
27269;SDS011;14769;56.934;24.176;2022-11-09T04:02:40;30.65;;;17.80;;
27269;SDS011;14769;56.934;24.176;2022-11-09T04:03:42;34.67;;;18.40;;
27269;SDS011;14769;56.934;24.176;2022-11-09T04:04:44;28.77;;;18.90;;
27269;SDS011;14769;56.934;24.176;2022-11-09T04:05:46;34.20;;;19.50;;
27269;SDS011;14769;56.934;24.176;2022-11-09T04:06:47;31.58;;;19.42;;
27269;SDS011;14769;56.934;24.176;2022-11-09T04:07:50;33.08;;;20.73;;
27269;SDS011;14769;56.934;24.176;2022-11-09T04:08:53;35.13;;;20.30;;
27269;SDS011;14769;56.934;24.176;2022-11-09T04:09:55;27.85;;;19.02;;
27269;SDS011;14769;56.934;24.176;2022-11-09T04:10:57;36.50;;;20.50;;
27269;SDS011;14769;56.934;24.176;2022-11-09T04:11:59;32.53;;;20.45;;
27269;SDS011;14769;56.934;24.176;2022-11-09T04:13:01;27.98;;;20.10;;
27269;SDS011;14769;56.934;24.176;2022-11-09T04:14:03;33.38;;;20.27;;
27269;SDS011;14769;56.934;24.176;2022-11-09T04:15:05;33.83;;;21.48;;
27269;SDS011;14769;56.934;24.176;2022-11-09T04:16:07;33.35;;;20.23;;
27269;SDS011;14769;56.934;24.176;2022-11-09T04:17:10;33.25;;;20.17;;
27269;SDS011;14769;56.934;24.176;2022-11-09T04:18:12;36.33;;;21.05;;
27269;SDS011;14769;56.934;24.176;2022-11-09T04:19:15;34.97;;;20.17;;
27269;SDS011;14769;56.934;24.176;2022-11-09T04:20:17;34.38;;;20.27;;
27269;SDS011;14769;56.934;24.176;2022-11-09T04:21:19;33.13;;;20.92;;
27269;SDS011;14769;56.934;24.176;2022-11-09T04:22:24;38.08;;;21.55;;
27269;SDS011;14769;56.934;24.176;2022-11-09T04:23:26;34.85;;;21.08;;
27269;SDS011;14769;56.934;24.176;2022-11-09T04:24:28;35.88;;;20.60;;
27269;SDS011;14769;56.934;24.176;2022-11-09T04:25:30;32.65;;;19.98;;
27269;SDS011;14769;56.934;24.176;2022-11-09T04:26:34;33.83;;;19.90;;
27269;SDS011;14769;56.934;24.176;2022-11-09T04:27:36;30.77;;;19.73;;
27269;SDS011;14769;56.934;24.176;2022-11-09T04:28:38;37.92;;;19.80;;
27269;SDS011;14769;56.934;24.176;2022-11-09T04:29:40;37.55;;;20.50;;
27269;SDS011;14769;56.934;24.176;2022-11-09T04:30:42;32.83;;;20.10;;
27269;SDS011;14769;56.934;24.176;2022-11-09T04:31:43;35.90;;;19.98;;
27269;SDS011;14769;56.934;24.176;2022-11-09T04:32:48;34.08;;;20.13;;
27269;SDS011;14769;56.934;24.176;2022-11-09T04:33:49;34.25;;;19.27;;
27269;SDS011;14769;56.934;24.176;2022-11-09T04:34:51;28.55;;;18.42;;
27269;SDS011;14769;56.934;24.176;2022-11-09T04:35:53;31.77;;;20.38;;
27269;SDS011;14769;56.934;24.176;2022-11-09T04:36:55;31.65;;;19.50;;
27269;SDS011;14769;56.934;24.176;2022-11-09T04:38:01;33.13;;;19.20;;
27269;SDS011;14769;56.934;24.176;2022-11-09T04:39:05;31.58;;;19.02;;
27269;SDS011;14769;56.934;24.176;2022-11-09T04:40:07;34.70;;;19.48;;
27269;SDS011;14769;56.934;24.176;2022-11-09T04:41:10;32.97;;;19.98;;
27269;SDS011;14769;56.934;24.176;2022-11-09T04:42:11;38.17;;;19.52;;
27269;SDS011;14769;56.934;24.176;2022-11-09T04:43:13;29.90;;;19.33;;
27269;SDS011;14769;56.934;24.176;2022-11-09T04:44:16;32.38;;;19.60;;
27269;SDS011;14769;56.934;24.176;2022-11-09T04:45:18;31.80;;;20.40;;
27269;SDS011;14769;56.934;24.176;2022-11-09T04:46:20;33.42;;;19.38;;
27269;SDS011;14769;56.934;24.176;2022-11-09T04:47:22;30.98;;;19.77;;
27269;SDS011;14769;56.934;24.176;2022-11-09T04:48:24;32.42;;;19.35;;
27269;SDS011;14769;56.934;24.176;2022-11-09T04:49:26;37.42;;;20.80;;
27269;SDS011;14769;56.934;24.176;2022-11-09T04:50:28;31.02;;;19.60;;
27269;SDS011;14769;56.934;24.176;2022-11-09T04:51:30;31.17;;;19.70;;
27269;SDS011;14769;56.934;24.176;2022-11-09T04:52:33;33.40;;;19.65;;
27269;SDS011;14769;56.934;24.176;2022-11-09T04:53:35;31.67;;;19.42;;
27269;SDS011;14769;56.934;24.176;2022-11-09T04:54:38;29.85;;;19.45;;
27269;SDS011;14769;56.934;24.176;2022-11-09T04:55:40;30.17;;;19.05;;
27269;SDS011;14769;56.934;24.176;2022-11-09T04:56:43;34.22;;;19.65;;
27269;SDS011;14769;56.934;24.176;2022-11-09T04:57:45;31.20;;;18.75;;
27269;SDS011;14769;56.934;24.176;2022-11-09T04:58:49;27.88;;;19.15;;
27269;SDS011;14769;56.934;24.176;2022-11-09T04:59:51;26.83;;;18.33;;
27269;SDS011;14769;56.934;24.176;2022-11-09T05:00:53;33.35;;;19.38;;
27269;SDS011;14769;56.934;24.176;2022-11-09T05:01:55;32.10;;;18.52;;
27269;SDS011;14769;56.934;24.176;2022-11-09T05:03:00;32.15;;;18.25;;
27269;SDS011;14769;56.934;24.176;2022-11-09T05:04:03;29.73;;;19.08;;
27269;SDS011;14769;56.934;24.176;2022-11-09T05:05:06;28.63;;;18.75;;
27269;SDS011;14769;56.934;24.176;2022-11-09T05:06:08;32.65;;;19.98;;
27269;SDS011;14769;56.934;24.176;2022-11-09T05:07:29;38.85;;;19.73;;
27269;SDS011;14769;56.934;24.176;2022-11-09T05:08:30;27.77;;;18.40;;
27269;SDS011;14769;56.934;24.176;2022-11-09T05:09:33;32.13;;;19.40;;
27269;SDS011;14769;56.934;24.176;2022-11-09T05:10:35;30.90;;;18.50;;
27269;SDS011;14769;56.934;24.176;2022-11-09T05:11:38;34.67;;;20.13;;
27269;SDS011;14769;56.934;24.176;2022-11-09T05:12:40;26.83;;;19.45;;
27269;SDS011;14769;56.934;24.176;2022-11-09T05:13:46;28.30;;;18.17;;
27269;SDS011;14769;56.934;24.176;2022-11-09T05:14:48;33.83;;;19.73;;
27269;SDS011;14769;56.934;24.176;2022-11-09T05:15:50;29.85;;;17.52;;
27269;SDS011;14769;56.934;24.176;2022-11-09T05:16:52;30.60;;;19.67;;
27269;SDS011;14769;56.934;24.176;2022-11-09T05:17:55;30.20;;;18.13;;
27269;SDS011;14769;56.934;24.176;2022-11-09T05:18:57;31.42;;;18.80;;
27269;SDS011;14769;56.934;24.176;2022-11-09T05:19:59;30.98;;;19.00;;
27269;SDS011;14769;56.934;24.176;2022-11-09T05:21:01;29.48;;;18.75;;
27269;SDS011;14769;56.934;24.176;2022-11-09T05:22:03;28.58;;;18.92;;
27269;SDS011;14769;56.934;24.176;2022-11-09T05:23:24;27.35;;;18.00;;
27269;SDS011;14769;56.934;24.176;2022-11-09T05:24:45;31.88;;;19.45;;
27269;SDS011;14769;56.934;24.176;2022-11-09T05:25:47;31.63;;;18.33;;
27269;SDS011;14769;56.934;24.176;2022-11-09T05:26:49;28.25;;;18.58;;
27269;SDS011;14769;56.934;24.176;2022-11-09T05:27:51;26.88;;;18.85;;
27269;SDS011;14769;56.934;24.176;2022-11-09T05:28:53;31.30;;;18.85;;
27269;SDS011;14769;56.934;24.176;2022-11-09T05:29:55;33.22;;;18.52;;
27269;SDS011;14769;56.934;24.176;2022-11-09T05:30:57;28.70;;;18.83;;
27269;SDS011;14769;56.934;24.176;2022-11-09T05:31:59;29.70;;;20.00;;
27269;SDS011;14769;56.934;24.176;2022-11-09T05:33:01;25.65;;;17.58;;
27269;SDS011;14769;56.934;24.176;2022-11-09T05:34:04;32.53;;;18.70;;
27269;SDS011;14769;56.934;24.176;2022-11-09T05:35:07;27.50;;;18.60;;
27269;SDS011;14769;56.934;24.176;2022-11-09T05:36:09;31.50;;;18.25;;
27269;SDS011;14769;56.934;24.176;2022-11-09T05:37:11;31.92;;;19.17;;
27269;SDS011;14769;56.934;24.176;2022-11-09T05:38:13;28.27;;;18.92;;
27269;SDS011;14769;56.934;24.176;2022-11-09T05:39:15;27.17;;;17.85;;
27269;SDS011;14769;56.934;24.176;2022-11-09T05:40:18;29.27;;;17.90;;
27269;SDS011;14769;56.934;24.176;2022-11-09T05:41:20;31.30;;;19.67;;
27269;SDS011;14769;56.934;24.176;2022-11-09T05:42:23;30.60;;;18.15;;
27269;SDS011;14769;56.934;24.176;2022-11-09T05:43:25;27.60;;;18.00;;
27269;SDS011;14769;56.934;24.176;2022-11-09T05:44:27;29.45;;;17.67;;
27269;SDS011;14769;56.934;24.176;2022-11-09T05:45:29;30.20;;;18.85;;
27269;SDS011;14769;56.934;24.176;2022-11-09T05:46:47;24.45;;;17.25;;
27269;SDS011;14769;56.934;24.176;2022-11-09T05:47:49;28.10;;;17.45;;
27269;SDS011;14769;56.934;24.176;2022-11-09T05:48:52;27.65;;;17.95;;
27269;SDS011;14769;56.934;24.176;2022-11-09T05:49:54;31.48;;;17.33;;
27269;SDS011;14769;56.934;24.176;2022-11-09T05:50:59;29.15;;;17.40;;
27269;SDS011;14769;56.934;24.176;2022-11-09T05:52:02;24.70;;;16.20;;
27269;SDS011;14769;56.934;24.176;2022-11-09T05:53:04;30.88;;;17.92;;
27269;SDS011;14769;56.934;24.176;2022-11-09T05:54:07;27.65;;;17.45;;
27269;SDS011;14769;56.934;24.176;2022-11-09T05:55:09;30.40;;;17.08;;
27269;SDS011;14769;56.934;24.176;2022-11-09T05:56:11;26.15;;;18.00;;
27269;SDS011;14769;56.934;24.176;2022-11-09T05:57:13;28.27;;;17.23;;
27269;SDS011;14769;56.934;24.176;2022-11-09T05:58:16;26.83;;;17.15;;
27269;SDS011;14769;56.934;24.176;2022-11-09T05:59:18;32.17;;;17.25;;
27269;SDS011;14769;56.934;24.176;2022-11-09T06:00:21;34.15;;;18.20;;
27269;SDS011;14769;56.934;24.176;2022-11-09T06:01:23;29.80;;;17.45;;
27269;SDS011;14769;56.934;24.176;2022-11-09T06:02:28;26.38;;;17.80;;
27269;SDS011;14769;56.934;24.176;2022-11-09T06:03:31;24.15;;;16.92;;
27269;SDS011;14769;56.934;24.176;2022-11-09T06:04:33;29.42;;;16.83;;
27269;SDS011;14769;56.934;24.176;2022-11-09T06:05:36;32.08;;;17.83;;
27269;SDS011;14769;56.934;24.176;2022-11-09T06:06:41;27.95;;;17.42;;
27269;SDS011;14769;56.934;24.176;2022-11-09T06:07:43;28.20;;;17.67;;
27269;SDS011;14769;56.934;24.176;2022-11-09T06:08:45;30.98;;;16.48;;